createdAt,value
2022-12-04T00:01:11.256Z,1
2022-12-04T00:03:11.451Z,1
2022-12-04T00:05:14.817Z,1
2022-12-04T00:07:17.929Z,1
2022-12-04T00:09:14.751Z,1
2022-12-04T00:11:14.815Z,1
2022-12-04T00:13:11.539Z,1
2022-12-04T00:15:26.375Z,1
2022-12-04T00:17:14.620Z,1
2022-12-04T00:19:10.843Z,1
2022-12-04T00:21:14.622Z,1
2022-12-04T00:23:17.622Z,1
2022-12-04T00:25:11.338Z,1
2022-12-04T00:27:10.821Z,1
2022-12-04T00:29:10.718Z,1
2022-12-04T00:31:11.002Z,1
2022-12-04T00:33:11.696Z,1
2022-12-04T00:37:14.448Z,1
2022-12-04T00:39:11.706Z,1
2022-12-04T00:41:14.811Z,1
2022-12-04T00:43:14.751Z,1
2022-12-04T00:45:14.823Z,1
2022-12-04T00:47:14.831Z,1
2022-12-04T00:49:11.260Z,1
2022-12-04T00:51:11.326Z,1
2022-12-04T00:53:11.553Z,1
2022-12-04T00:55:10.752Z,1
2022-12-04T00:57:17.947Z,1
2022-12-04T00:59:11.276Z,1
2022-12-04T01:01:11.259Z,1
2022-12-04T01:03:10.685Z,1
2022-12-04T01:05:14.976Z,1
2022-12-04T01:07:11.526Z,1
2022-12-04T01:09:11.412Z,1
2022-12-04T01:11:11.402Z,1
2022-12-04T01:15:11.386Z,1
2022-12-04T01:17:14.617Z,1
2022-12-04T01:19:11.537Z,1
2022-12-04T01:21:11.289Z,1
2022-12-04T01:23:11.547Z,1
2022-12-04T01:25:11.584Z,1
2022-12-04T01:27:14.679Z,1
2022-12-04T01:29:14.666Z,1
2022-12-04T01:31:14.646Z,1
2022-12-04T01:33:17.891Z,1
2022-12-04T01:35:11.380Z,1
2022-12-04T01:37:11.324Z,1
2022-12-04T01:39:11.092Z,1
2022-12-04T01:41:11.296Z,1
2022-12-04T01:43:11.489Z,1
2022-12-04T01:45:11.608Z,1
2022-12-04T01:47:16.648Z,1
2022-12-04T01:49:11.037Z,1
2022-12-04T01:51:11.632Z,1
2022-12-04T01:53:11.431Z,1
2022-12-04T01:55:11.078Z,1
2022-12-04T01:57:17.406Z,1
2022-12-04T01:59:11.209Z,1
2022-12-04T02:01:10.940Z,1
2022-12-04T02:03:11.209Z,1
2022-12-04T02:05:14.443Z,1
2022-12-04T02:07:14.788Z,1
2022-12-04T02:09:11.554Z,1
2022-12-04T02:11:11.105Z,1
2022-12-04T02:13:11.535Z,1
2022-12-04T02:15:11.556Z,1
2022-12-04T02:17:11.574Z,1
2022-12-04T02:19:11.660Z,1
2022-12-04T02:21:11.275Z,1
2022-12-04T02:23:11.513Z,1
2022-12-04T02:25:17.865Z,1
2022-12-04T02:27:11.363Z,1
2022-12-04T02:29:11.315Z,1
2022-12-04T02:31:10.716Z,1
2022-12-04T02:33:11.704Z,1
2022-12-04T02:37:11.418Z,1
2022-12-04T02:39:11.494Z,1
2022-12-04T02:41:11.368Z,1
2022-12-04T02:43:11.269Z,1
2022-12-04T02:45:17.925Z,1
2022-12-04T02:47:14.741Z,1
2022-12-04T02:49:10.809Z,1
2022-12-04T02:51:23.295Z,1
2022-12-04T02:53:11.405Z,1
2022-12-04T02:55:10.805Z,1
2022-12-04T02:57:11.329Z,1
2022-12-04T02:59:17.839Z,1
2022-12-04T03:01:17.855Z,1
2022-12-04T03:03:11.360Z,1
2022-12-04T03:05:14.452Z,1
2022-12-04T03:07:17.958Z,1
2022-12-04T03:09:17.981Z,1
2022-12-04T03:11:10.956Z,1
2022-12-04T03:13:11.751Z,1
2022-12-04T03:15:17.800Z,1
2022-12-04T03:17:10.859Z,1
2022-12-04T03:19:17.930Z,1
2022-12-04T03:21:14.794Z,1
2022-12-04T03:23:14.662Z,1
2022-12-04T03:25:11.262Z,1
2022-12-04T03:27:11.094Z,1
2022-12-04T03:29:11.434Z,1
2022-12-04T03:31:11.534Z,1
2022-12-04T03:35:10.777Z,1
2022-12-04T03:37:10.655Z,1
2022-12-04T03:39:11.096Z,1
2022-12-04T03:41:11.421Z,1
2022-12-04T03:43:14.416Z,1
2022-12-04T03:45:10.726Z,1
2022-12-04T03:47:11.168Z,1
2022-12-04T03:49:18.003Z,1
2022-12-04T03:51:14.083Z,1
2022-12-04T03:53:11.268Z,1
2022-12-04T03:55:10.867Z,1
2022-12-04T03:57:11.558Z,1
2022-12-04T03:59:11.582Z,1
2022-12-04T04:01:17.920Z,1
2022-12-04T04:03:10.671Z,1
2022-12-04T04:05:10.677Z,1
2022-12-04T04:07:10.771Z,1
2022-12-04T04:09:11.755Z,1
2022-12-04T04:11:10.963Z,1
2022-12-04T04:13:11.284Z,1
2022-12-04T04:15:11.558Z,1
2022-12-04T04:17:11.749Z,1
2022-12-04T04:19:11.312Z,1
2022-12-04T04:21:10.836Z,1
2022-12-04T04:23:11.931Z,1
2022-12-04T04:25:14.627Z,1
2022-12-04T04:27:14.948Z,1
2022-12-04T04:29:11.241Z,1
2022-12-04T04:31:17.956Z,1
2022-12-04T04:33:11.000Z,1
2022-12-04T04:35:11.179Z,1
2022-12-04T04:37:11.651Z,1
2022-12-04T04:41:11.699Z,1
2022-12-04T04:45:11.516Z,1
2022-12-04T04:47:11.964Z,1
2022-12-04T04:49:10.786Z,1
2022-12-04T04:51:10.791Z,1
2022-12-04T04:53:10.938Z,1
2022-12-04T04:55:10.842Z,1
2022-12-04T04:57:14.681Z,1
2022-12-04T04:59:10.904Z,1
2022-12-04T05:01:17.909Z,1
2022-12-04T05:03:11.321Z,1
2022-12-04T05:05:10.778Z,1
2022-12-04T05:07:14.738Z,1
2022-12-04T05:09:11.025Z,1
2022-12-04T05:11:17.932Z,1
2022-12-04T05:13:11.430Z,1
2022-12-04T05:15:15.695Z,1
2022-12-04T05:17:12.686Z,1
2022-12-04T05:19:10.829Z,1
2022-12-04T05:23:14.612Z,1
2022-12-04T05:25:11.125Z,1
2022-12-04T05:27:11.278Z,1
2022-12-04T05:29:11.252Z,1
2022-12-04T05:31:11.484Z,1
2022-12-04T05:35:11.851Z,1
2022-12-04T05:37:11.354Z,1
2022-12-04T05:39:11.244Z,1
2022-12-04T05:41:14.728Z,1
2022-12-04T05:43:11.260Z,1
2022-12-04T05:45:11.567Z,1
2022-12-04T05:47:11.577Z,1
2022-12-04T05:49:14.532Z,1
2022-12-04T05:51:11.219Z,1
2022-12-04T05:53:14.583Z,1
2022-12-04T05:55:11.226Z,1
2022-12-04T05:57:10.959Z,1
2022-12-04T05:59:14.660Z,1
2022-12-04T06:01:10.747Z,1
2022-12-04T06:03:14.821Z,1
2022-12-04T06:05:14.593Z,1
2022-12-04T06:07:11.098Z,0
2022-12-04T06:09:14.919Z,0
2022-12-04T06:11:11.279Z,0
2022-12-04T06:13:14.766Z,0
2022-12-04T06:15:14.586Z,0.1
2022-12-04T06:17:14.374Z,0.1
2022-12-04T06:19:14.673Z,0.2
2022-12-04T06:23:11.304Z,0.3
2022-12-04T06:25:10.803Z,0.5
2022-12-04T06:27:27.043Z,0.8
2022-12-04T06:29:14.647Z,1.1
2022-12-04T06:31:11.422Z,1.3
2022-12-04T06:33:17.604Z,1.9
2022-12-04T06:35:11.718Z,2.5
2022-12-04T06:37:11.468Z,3.5
2022-12-04T06:39:19.057Z,4.7
2022-12-04T06:41:14.761Z,5.8
2022-12-04T06:43:11.295Z,7
2022-12-04T06:45:11.481Z,9.5
2022-12-04T06:47:11.738Z,11.6
2022-12-04T06:49:17.933Z,12.8
2022-12-04T06:51:14.633Z,14.9
2022-12-04T06:53:10.842Z,18.2
2022-12-04T06:55:16.136Z,21.1
2022-12-04T06:57:14.669Z,23.3
2022-12-04T06:59:14.737Z,28.5
2022-12-04T07:01:12.002Z,30
2022-12-04T07:03:10.850Z,31.5
2022-12-04T07:05:14.849Z,33.1
2022-12-04T07:07:16.672Z,36.6
2022-12-04T07:09:16.074Z,40.4
2022-12-04T07:11:16.838Z,44.7
2022-12-04T07:13:16.268Z,49.4
2022-12-04T07:15:19.521Z,57.4
2022-12-04T07:17:16.476Z,63.4
2022-12-04T07:19:16.740Z,70.1
2022-12-04T07:21:16.808Z,77.5
2022-12-04T07:23:16.801Z,81.5
2022-12-04T07:25:16.601Z,81.5
2022-12-04T07:27:16.606Z,85.6
2022-12-04T07:29:16.753Z,90
2022-12-04T07:31:17.108Z,109.9
2022-12-04T07:33:16.739Z,134.3
2022-12-04T07:35:16.613Z,134.3
2022-12-04T07:37:16.207Z,172.4
2022-12-04T07:39:18.042Z,164
2022-12-04T07:41:20.120Z,172.4
2022-12-04T07:45:23.379Z,172.4
2022-12-04T07:47:19.832Z,172.4
2022-12-04T07:49:19.509Z,181.3
2022-12-04T07:51:16.055Z,172.4
2022-12-04T07:53:16.315Z,164
2022-12-04T07:55:20.203Z,181.3
2022-12-04T07:57:16.031Z,190.6
2022-12-04T07:59:16.121Z,210.6
2022-12-04T08:01:16.257Z,210.6
2022-12-04T08:03:16.827Z,221.4
2022-12-04T08:05:20.226Z,270.4
2022-12-04T08:07:16.573Z,270.4
2022-12-04T08:09:20.186Z,257.2
2022-12-04T08:11:16.562Z,270.4
2022-12-04T08:13:16.733Z,270.4
2022-12-04T08:15:19.649Z,270.4
2022-12-04T08:17:16.691Z,270.4
2022-12-04T08:19:23.382Z,284.3
2022-12-04T08:21:16.616Z,298.9
2022-12-04T08:23:16.885Z,330.3
2022-12-04T08:25:16.526Z,330.3
2022-12-04T08:27:16.229Z,347.2
2022-12-04T08:29:23.166Z,347.2
2022-12-04T08:31:16.497Z,383.8
2022-12-04T08:33:16.895Z,403.4
2022-12-04T08:35:16.773Z,383.8
2022-12-04T08:37:19.966Z,383.8
2022-12-04T08:39:16.680Z,383.8
2022-12-04T08:41:19.960Z,383.8
2022-12-04T08:43:19.738Z,403.4
2022-12-04T08:45:16.717Z,403.4
2022-12-04T08:47:16.718Z,424.1
2022-12-04T08:49:20.116Z,424.1
2022-12-04T08:51:19.972Z,445.9
2022-12-04T08:53:16.133Z,445.9
2022-12-04T08:55:20.123Z,445.9
2022-12-04T08:57:16.786Z,445.9
2022-12-04T08:59:16.120Z,403.4
2022-12-04T09:01:16.181Z,403.4
2022-12-04T09:03:16.236Z,403.4
2022-12-04T09:05:19.933Z,445.9
2022-12-04T09:07:16.841Z,468.7
2022-12-04T09:09:20.156Z,468.7
2022-12-04T09:11:16.820Z,492.7
2022-12-04T09:13:19.930Z,518
2022-12-04T09:15:16.044Z,601.8
2022-12-04T09:17:19.708Z,699.2
2022-12-04T09:19:19.926Z,735.1
2022-12-04T09:23:23.263Z,854.1
2022-12-04T09:25:23.349Z,854.1
2022-12-04T09:27:19.765Z,812.4
2022-12-04T09:29:16.699Z,812.4
2022-12-04T09:31:16.711Z,854.1
2022-12-04T09:33:20.250Z,854.1
2022-12-04T09:35:20.137Z,812.4
2022-12-04T09:37:17.142Z,772.8
2022-12-04T09:39:16.688Z,735.1
2022-12-04T09:41:23.134Z,735.1
2022-12-04T09:43:16.131Z,897.8
2022-12-04T09:45:16.115Z,1212
2022-12-04T09:47:16.115Z,1212
2022-12-04T09:51:17.139Z,1096.6
2022-12-04T09:53:17.046Z,1212
2022-12-04T09:55:16.748Z,992.3
2022-12-04T09:57:16.101Z,943.9
2022-12-04T09:59:16.924Z,992.3
2022-12-04T10:01:16.881Z,1043.1
2022-12-04T10:03:16.308Z,992.3
2022-12-04T10:05:23.287Z,897.8
2022-12-04T10:07:16.159Z,854.1
2022-12-04T10:09:16.061Z,992.3
2022-12-04T10:11:19.879Z,943.9
2022-12-04T10:13:16.173Z,943.9
2022-12-04T10:17:16.746Z,1043.1
2022-12-04T10:19:20.143Z,943.9
2022-12-04T10:21:19.321Z,943.9
2022-12-04T10:23:16.095Z,992.3
2022-12-04T10:25:16.869Z,992.3
2022-12-04T10:27:16.166Z,1152.9
2022-12-04T10:29:16.282Z,992.3
2022-12-04T10:31:16.371Z,1096.6
2022-12-04T10:33:16.164Z,1212
2022-12-04T10:35:16.923Z,1043.1
2022-12-04T10:37:23.262Z,943.9
2022-12-04T10:39:16.780Z,943.9
2022-12-04T10:41:18.419Z,897.8
2022-12-04T10:43:19.826Z,943.9
2022-12-04T10:45:16.115Z,897.8
2022-12-04T10:47:16.611Z,854.1
2022-12-04T10:49:23.364Z,943.9
2022-12-04T10:51:16.791Z,699.2
2022-12-04T10:53:16.122Z,632.7
2022-12-04T10:55:20.191Z,601.8
2022-12-04T10:57:23.276Z,632.7
2022-12-04T10:59:16.799Z,601.8
2022-12-04T11:01:20.192Z,632.7
2022-12-04T11:03:16.819Z,699.2
2022-12-04T11:05:16.723Z,665.1
2022-12-04T11:07:16.670Z,699.2
2022-12-04T11:09:20.341Z,601.8
2022-12-04T11:11:16.392Z,601.8
2022-12-04T11:13:16.062Z,632.7
2022-12-04T11:15:16.663Z,601.8
2022-12-04T11:17:16.717Z,665.1
2022-12-04T11:19:16.288Z,699.2
2022-12-04T11:21:16.044Z,772.8
2022-12-04T11:23:16.202Z,735.1
2022-12-04T11:25:16.849Z,699.2
2022-12-04T11:27:16.160Z,735.1
2022-12-04T11:29:16.717Z,735.1
2022-12-04T11:31:16.750Z,665.1
2022-12-04T11:33:21.832Z,632.7
2022-12-04T11:35:23.319Z,665.1
2022-12-04T11:37:20.191Z,665.1
2022-12-04T11:39:16.851Z,632.7
2022-12-04T11:41:16.082Z,699.2
2022-12-04T11:43:16.446Z,699.2
2022-12-04T11:45:16.813Z,665.1
2022-12-04T11:47:16.927Z,632.7
2022-12-04T11:49:16.875Z,572.5
2022-12-04T11:51:16.245Z,601.8
2022-12-04T11:53:23.377Z,601.8
2022-12-04T11:55:16.049Z,572.5
2022-12-04T11:57:16.054Z,572.5
2022-12-04T11:59:16.724Z,572.5
2022-12-04T12:03:16.270Z,544.6
2022-12-04T12:05:17.027Z,518
2022-12-04T12:07:16.672Z,544.6
2022-12-04T12:09:23.448Z,572.5
2022-12-04T12:11:16.287Z,544.6
2022-12-04T12:13:17.029Z,544.6
2022-12-04T12:15:16.941Z,518
2022-12-04T12:17:21.635Z,518
2022-12-04T12:19:19.986Z,518
2022-12-04T12:23:20.086Z,544.6
2022-12-04T12:25:20.212Z,544.6
2022-12-04T12:27:16.296Z,601.8
2022-12-04T12:31:19.779Z,601.8
2022-12-04T12:33:16.135Z,572.5
2022-12-04T12:35:16.747Z,601.8
2022-12-04T12:37:16.066Z,518
2022-12-04T12:39:16.112Z,544.6
2022-12-04T12:41:16.862Z,518
2022-12-04T12:43:16.791Z,518
2022-12-04T12:47:16.147Z,468.7
2022-12-04T12:49:16.229Z,518
2022-12-04T12:51:29.428Z,544.6
2022-12-04T12:53:17.000Z,468.7
2022-12-04T12:55:16.066Z,403.4
2022-12-04T12:57:16.984Z,445.9
2022-12-04T12:59:19.710Z,518
2022-12-04T13:01:16.854Z,492.7
2022-12-04T13:03:16.694Z,518
2022-12-04T13:05:16.185Z,492.7
2022-12-04T13:07:18.786Z,492.7
2022-12-04T13:09:16.595Z,445.9
2022-12-04T13:11:20.214Z,403.4
2022-12-04T13:13:20.054Z,383.8
2022-12-04T13:15:16.771Z,383.8
2022-12-04T13:17:20.178Z,403.4
2022-12-04T13:19:16.690Z,403.4
2022-12-04T13:21:16.138Z,403.4
2022-12-04T13:23:16.785Z,403.4
2022-12-04T13:25:16.756Z,403.4
2022-12-04T13:27:16.496Z,403.4
2022-12-04T13:29:16.165Z,383.8
2022-12-04T13:31:16.865Z,383.8
2022-12-04T13:33:16.786Z,365
2022-12-04T13:35:16.730Z,347.2
2022-12-04T13:37:16.906Z,365
2022-12-04T13:39:16.432Z,347.2
2022-12-04T13:41:16.755Z,347.2
2022-12-04T13:43:16.207Z,330.3
2022-12-04T13:45:16.728Z,330.3
2022-12-04T13:47:16.205Z,330.3
2022-12-04T13:49:16.371Z,314.2
2022-12-04T13:51:16.278Z,298.9
2022-12-04T13:53:16.293Z,298.9
2022-12-04T13:55:23.317Z,270.4
2022-12-04T13:57:20.213Z,270.4
2022-12-04T13:59:16.680Z,270.4
2022-12-04T14:01:16.240Z,284.3
2022-12-04T14:03:16.077Z,270.4
2022-12-04T14:05:16.105Z,244.7
2022-12-04T14:07:16.883Z,221.4
2022-12-04T14:09:16.728Z,221.4
2022-12-04T14:11:16.146Z,221.4
2022-12-04T14:13:21.717Z,221.4
2022-12-04T14:15:22.902Z,190.6
2022-12-04T14:17:16.146Z,181.3
2022-12-04T14:19:16.850Z,172.4
2022-12-04T14:23:16.315Z,164
2022-12-04T14:25:21.261Z,164
2022-12-04T14:27:20.259Z,164
2022-12-04T14:29:16.431Z,156
2022-12-04T14:31:16.358Z,164
2022-12-04T14:33:20.410Z,156
2022-12-04T14:35:16.262Z,148.4
2022-12-04T14:37:16.718Z,141.2
2022-12-04T14:39:16.361Z,134.3
2022-12-04T14:41:16.997Z,121.5
2022-12-04T14:43:17.230Z,109.9
2022-12-04T14:45:23.231Z,109.9
2022-12-04T14:47:16.251Z,90
2022-12-04T14:49:20.227Z,77.5
2022-12-04T14:51:16.085Z,70.1
2022-12-04T14:53:16.258Z,63.4
2022-12-04T14:55:16.371Z,57.4
2022-12-04T14:57:16.937Z,54.6
2022-12-04T14:59:16.246Z,57.4
2022-12-04T15:01:24.017Z,51.9
2022-12-04T15:03:16.093Z,44.7
2022-12-04T15:05:19.941Z,38.5
2022-12-04T15:07:16.366Z,36.6
2022-12-04T15:09:16.527Z,30
2022-12-04T15:11:16.924Z,28.5
2022-12-04T15:13:21.511Z,24.5
2022-12-04T15:15:16.648Z,20.1
2022-12-04T15:17:16.307Z,17.3
2022-12-04T15:19:16.612Z,12.2
2022-12-04T15:21:17.234Z,11
2022-12-04T15:23:16.925Z,10.5
2022-12-04T15:25:16.187Z,9.5
2022-12-04T15:27:16.829Z,8.6
2022-12-04T15:29:19.691Z,6.4
2022-12-04T15:31:16.793Z,5.2
2022-12-04T15:33:21.102Z,4.3
2022-12-04T15:35:19.568Z,3.5
2022-12-04T15:37:17.030Z,2.6
2022-12-04T15:39:16.499Z,2
2022-12-04T15:41:19.882Z,1.6
2022-12-04T15:43:16.859Z,1.1
2022-12-04T15:45:20.137Z,0.7
2022-12-04T15:47:16.937Z,0.5
2022-12-04T15:49:16.184Z,0.4
2022-12-04T15:51:20.255Z,0.3
2022-12-04T15:53:16.618Z,0.2
2022-12-04T15:55:16.783Z,0.2
2022-12-04T15:57:23.299Z,0.1
2022-12-04T15:59:20.148Z,0
2022-12-04T16:01:16.934Z,0
2022-12-04T16:03:16.863Z,0
2022-12-04T16:05:20.218Z,0
2022-12-04T16:07:16.604Z,0
2022-12-04T16:09:16.457Z,0
2022-12-04T16:11:20.032Z,0
2022-12-04T16:13:16.388Z,1
2022-12-04T16:15:16.212Z,1
2022-12-04T16:17:19.711Z,1
2022-12-04T16:19:16.176Z,1
2022-12-04T16:21:16.084Z,1
2022-12-04T16:23:16.797Z,1
2022-12-04T16:25:17.004Z,1
2022-12-04T16:27:16.640Z,1
2022-12-04T16:29:16.565Z,1
2022-12-04T16:31:16.590Z,1
2022-12-04T16:33:16.383Z,1
2022-12-04T16:35:16.710Z,1
2022-12-04T16:37:16.301Z,1
2022-12-04T16:39:16.112Z,1
2022-12-04T16:41:23.297Z,1
2022-12-04T16:43:16.103Z,1
2022-12-04T16:47:16.627Z,1
2022-12-04T16:49:16.184Z,1
2022-12-04T16:51:16.198Z,1
2022-12-04T16:53:16.251Z,1
2022-12-04T16:55:16.260Z,1
2022-12-04T16:57:16.718Z,1
2022-12-04T16:59:16.253Z,1
2022-12-04T17:01:20.102Z,1
2022-12-04T17:03:16.935Z,1
2022-12-04T17:05:16.737Z,1
2022-12-04T17:07:23.359Z,1
2022-12-04T17:09:16.448Z,1
2022-12-04T17:11:16.337Z,1
2022-12-04T17:13:19.822Z,1
2022-12-04T17:15:16.710Z,1
2022-12-04T17:17:16.650Z,1
2022-12-04T17:19:20.288Z,1
2022-12-04T17:21:16.814Z,1
2022-12-04T17:23:16.199Z,1
2022-12-04T17:25:19.769Z,1
2022-12-04T17:27:16.168Z,1
2022-12-04T17:29:17.211Z,1
2022-12-04T17:31:16.140Z,1
2022-12-04T17:33:16.319Z,1
2022-12-04T17:35:16.241Z,1
2022-12-04T17:39:16.783Z,1
2022-12-04T17:41:16.901Z,1
2022-12-04T17:43:21.847Z,1
2022-12-04T17:45:16.812Z,1
2022-12-04T17:47:16.634Z,1
2022-12-04T17:54:27.596Z,1
2022-12-04T17:54:39.446Z,1
2022-12-04T17:57:31.950Z,1
2022-12-04T18:01:27.652Z,1
2022-12-04T18:06:01.791Z,1
2022-12-04T18:09:58.128Z,1
2022-12-04T18:17:00.490Z,1
2022-12-04T18:18:55.505Z,1
2022-12-04T18:20:52.067Z,1
2022-12-04T18:22:54.742Z,1
2022-12-04T18:24:52.069Z,1
2022-12-04T18:26:51.724Z,1
2022-12-04T18:28:51.822Z,1
2022-12-04T18:30:55.517Z,1
2022-12-04T18:32:52.109Z,1
2022-12-04T18:34:52.420Z,1
2022-12-04T18:36:51.670Z,1
2022-12-04T18:38:52.264Z,1
2022-12-04T18:42:51.039Z,1
2022-12-04T18:44:55.071Z,1
2022-12-04T18:46:52.269Z,1
2022-12-04T18:48:55.314Z,1
2022-12-04T18:50:51.044Z,1
2022-12-04T18:53:00.060Z,1
2022-12-04T18:54:55.645Z,1
2022-12-04T18:56:51.012Z,1
2022-12-04T18:58:58.486Z,1
2022-12-04T19:00:55.709Z,1
2022-12-04T19:02:51.745Z,1
2022-12-04T19:04:51.756Z,1
2022-12-04T19:06:55.612Z,1
2022-12-04T19:08:55.556Z,1
2022-12-04T19:10:51.440Z,1
2022-12-04T19:12:52.130Z,1
2022-12-04T19:14:53.585Z,1
2022-12-04T19:16:58.766Z,1
2022-12-04T19:18:58.866Z,1
2022-12-04T19:20:52.506Z,1
2022-12-04T19:22:51.760Z,1
2022-12-04T19:24:51.522Z,1
2022-12-04T19:26:58.388Z,1
2022-12-04T19:28:51.512Z,1
2022-12-04T19:30:52.317Z,1
2022-12-04T19:32:51.684Z,1
2022-12-04T19:34:58.753Z,1
2022-12-04T19:36:52.253Z,1
2022-12-04T19:38:54.874Z,1
2022-12-04T19:40:55.651Z,1
2022-12-04T19:42:51.955Z,1
2022-12-04T19:44:56.301Z,1
2022-12-04T19:46:55.457Z,1
2022-12-04T19:48:52.598Z,1
2022-12-04T19:50:51.886Z,1
2022-12-04T19:52:54.912Z,1
2022-12-04T19:54:52.616Z,1
2022-12-04T19:56:55.227Z,1
2022-12-04T19:58:52.408Z,1
2022-12-04T20:00:54.758Z,1
2022-12-04T20:02:55.710Z,1
2022-12-04T20:04:58.764Z,1
2022-12-04T20:06:51.859Z,1
2022-12-04T20:08:52.331Z,1
2022-12-04T20:10:51.602Z,1
2022-12-04T20:12:51.588Z,1
2022-12-04T20:14:55.614Z,1
2022-12-04T20:16:51.481Z,1
2022-12-04T20:18:59.306Z,1
2022-12-04T20:20:55.685Z,1
2022-12-04T20:22:51.787Z,1
2022-12-04T20:24:51.875Z,1
2022-12-04T20:26:54.669Z,1
2022-12-04T20:28:52.055Z,1
2022-12-04T20:30:53.637Z,1
2022-12-04T20:32:52.017Z,1
2022-12-04T20:34:54.999Z,1
2022-12-04T20:38:51.569Z,1
2022-12-04T20:40:51.647Z,1
2022-12-04T20:42:52.076Z,1
2022-12-04T20:44:53.659Z,1
2022-12-04T20:46:52.486Z,1
2022-12-04T20:48:58.653Z,1
2022-12-04T20:50:52.267Z,1
2022-12-04T20:52:52.351Z,1
2022-12-04T20:54:51.976Z,1
2022-12-04T20:56:51.435Z,1
2022-12-04T20:58:55.789Z,1
2022-12-04T21:00:52.236Z,1
2022-12-04T21:02:51.678Z,1
2022-12-04T21:04:53.089Z,1
2022-12-04T21:06:52.010Z,1
2022-12-04T21:08:51.934Z,1
2022-12-04T21:10:54.883Z,1
2022-12-04T21:12:51.282Z,1
2022-12-04T21:14:55.278Z,1
2022-12-04T21:16:52.124Z,1
2022-12-04T21:18:55.639Z,1
2022-12-04T21:20:51.551Z,1
2022-12-04T21:22:52.388Z,1
2022-12-04T21:24:55.659Z,1
2022-12-04T21:26:55.627Z,1
2022-12-04T21:28:51.334Z,1
2022-12-04T21:30:52.506Z,1
2022-12-04T21:34:51.146Z,1
2022-12-04T21:36:52.073Z,1
2022-12-04T21:38:51.269Z,1
2022-12-04T21:40:52.048Z,1
2022-12-04T21:42:57.344Z,1
2022-12-04T21:44:55.795Z,1
2022-12-04T21:46:55.819Z,1
2022-12-04T21:48:55.424Z,1
2022-12-04T21:50:52.551Z,1
2022-12-04T21:52:51.376Z,1
2022-12-04T21:54:55.763Z,1
2022-12-04T21:56:51.920Z,1
2022-12-04T21:58:51.718Z,1
2022-12-04T22:00:52.226Z,1
2022-12-04T22:02:52.254Z,1
2022-12-04T22:04:58.894Z,1
2022-12-04T22:06:51.621Z,1
2022-12-04T22:08:51.554Z,1
2022-12-04T22:10:55.355Z,1
2022-12-04T22:12:51.422Z,1
2022-12-04T22:14:52.078Z,1
2022-12-04T22:16:58.973Z,1
2022-12-04T22:18:55.261Z,1
2022-12-04T22:20:58.794Z,1
2022-12-04T22:22:52.018Z,1
2022-12-04T22:25:01.905Z,1
2022-12-04T22:26:52.128Z,1
2022-12-04T22:28:51.999Z,1
2022-12-04T22:30:54.312Z,1
2022-12-04T22:32:52.665Z,1
2022-12-04T22:34:57.090Z,1
2022-12-04T22:36:52.289Z,1
2022-12-04T22:39:08.584Z,1
2022-12-04T22:40:55.752Z,1
2022-12-04T22:42:58.703Z,1
2022-12-04T22:44:51.705Z,1
2022-12-04T22:46:52.158Z,1
2022-12-04T22:48:54.198Z,1
2022-12-04T22:50:54.850Z,1
2022-12-04T22:52:51.845Z,1
2022-12-04T22:54:52.445Z,1
2022-12-04T22:56:54.781Z,1
2022-12-04T22:58:54.736Z,1
2022-12-04T23:00:51.275Z,1
2022-12-04T23:02:59.440Z,1
2022-12-04T23:04:52.451Z,1
2022-12-04T23:06:59.070Z,1
2022-12-04T23:08:51.656Z,1
2022-12-04T23:10:52.075Z,1
2022-12-04T23:12:53.705Z,1
2022-12-04T23:14:51.730Z,1
2022-12-04T23:16:56.717Z,1
2022-12-04T23:18:51.462Z,1
2022-12-04T23:20:55.552Z,1
2022-12-04T23:22:51.676Z,1
2022-12-04T23:24:51.576Z,1
2022-12-04T23:26:52.457Z,1
2022-12-04T23:28:52.530Z,1
2022-12-04T23:30:55.155Z,1
2022-12-04T23:39:37.211Z,1
2022-12-04T23:41:40.467Z,1
2022-12-04T23:43:37.013Z,1
2022-12-04T23:45:37.007Z,1
2022-12-04T23:47:37.100Z,1
2022-12-04T23:49:36.969Z,1
2022-12-04T23:51:36.493Z,1
2022-12-04T23:53:37.364Z,1
2022-12-04T23:55:43.517Z,1
2022-12-04T23:57:36.956Z,1
2022-12-04T23:59:36.378Z,1
